Ocean City, Washington
Current Conditions -  °F | °C
As of 6:53 AM on Monday 24 Nov 2014 (Local Time) from KHQM Reporting Station
Overcast Overcast  
Wind Chill: 33°   Ceiling: 2100
Heat Index: 39°   Visibility: 7mi
Dew Point: 39°   Wind: 9mph
Humidity: 100%   Direction: 70°ENE
Pressure: 30.31"   Gusts: NA
Location:  46.9704°N, 124.153°W
Report Text: KHQM 241453Z AUTO 07008KT 7SM OVC021 04/04 A3031 RMK AO2 SLP268 T00390039 56005
Loading
Personal Weather Stations






























Interactive Weather Map New forecast layout! Learn more

10-Day Weather Forecast

Advertisements
Track Severe Weather on mobile